sensor_id;sensor_type;location;lat;lon;timestamp;temperature;humidity
68691;DHT22;55675;49.588;8.640;2023-02-28T00:00:03;2.80;57.40
68691;DHT22;55675;49.588;8.640;2023-02-28T00:02:35;2.80;57.60
68691;DHT22;55675;49.588;8.640;2023-02-28T00:05:01;2.80;58.10
68691;DHT22;55675;49.588;8.640;2023-02-28T00:07:29;2.80;57.90
68691;DHT22;55675;49.588;8.640;2023-02-28T00:09:54;2.80;57.70
68691;DHT22;55675;49.588;8.640;2023-02-28T00:12:20;2.90;57.40
68691;DHT22;55675;49.588;8.640;2023-02-28T00:14:45;2.90;57.50
68691;DHT22;55675;49.588;8.640;2023-02-28T00:17:10;3.00;57.30
68691;DHT22;55675;49.588;8.640;2023-02-28T00:19:36;3.00;57.40
68691;DHT22;55675;49.588;8.640;2023-02-28T00:22:01;3.10;57.90
68691;DHT22;55675;49.588;8.640;2023-02-28T00:24:27;3.10;57.50
68691;DHT22;55675;49.588;8.640;2023-02-28T00:26:52;3.10;57.60
68691;DHT22;55675;49.588;8.640;2023-02-28T00:29:18;3.10;58.00
68691;DHT22;55675;49.588;8.640;2023-02-28T00:31:43;3.00;58.00
68691;DHT22;55675;49.588;8.640;2023-02-28T00:34:08;3.00;58.00
68691;DHT22;55675;49.588;8.640;2023-02-28T00:36:34;2.90;58.10
68691;DHT22;55675;49.588;8.640;2023-02-28T00:38:59;2.80;58.60
68691;DHT22;55675;49.588;8.640;2023-02-28T00:41:25;2.70;58.20
68691;DHT22;55675;49.588;8.640;2023-02-28T00:43:50;2.70;58.60
68691;DHT22;55675;49.588;8.640;2023-02-28T00:46:16;2.60;59.50
68691;DHT22;55675;49.588;8.640;2023-02-28T00:48:41;2.50;59.60
68691;DHT22;55675;49.588;8.640;2023-02-28T00:51:06;2.50;59.60
68691;DHT22;55675;49.588;8.640;2023-02-28T00:53:32;2.40;59.50
68691;DHT22;55675;49.588;8.640;2023-02-28T00:55:58;2.30;59.60
68691;DHT22;55675;49.588;8.640;2023-02-28T00:58:23;2.30;60.00
68691;DHT22;55675;49.588;8.640;2023-02-28T01:00:50;2.20;60.30
68691;DHT22;55675;49.588;8.640;2023-02-28T01:03:16;2.20;61.10
68691;DHT22;55675;49.588;8.640;2023-02-28T01:05:42;2.20;61.20
68691;DHT22;55675;49.588;8.640;2023-02-28T01:08:07;2.20;60.80
68691;DHT22;55675;49.588;8.640;2023-02-28T01:10:32;2.20;61.70
68691;DHT22;55675;49.588;8.640;2023-02-28T01:12:58;2.00;62.70
68691;DHT22;55675;49.588;8.640;2023-02-28T01:15:24;2.10;62.30
68691;DHT22;55675;49.588;8.640;2023-02-28T01:17:49;2.00;62.80
68691;DHT22;55675;49.588;8.640;2023-02-28T01:20:15;1.90;62.80
68691;DHT22;55675;49.588;8.640;2023-02-28T01:22:40;1.90;63.60
68691;DHT22;55675;49.588;8.640;2023-02-28T01:25:06;1.90;63.20
68691;DHT22;55675;49.588;8.640;2023-02-28T01:27:31;1.90;63.70
68691;DHT22;55675;49.588;8.640;2023-02-28T01:29:58;1.90;63.20
68691;DHT22;55675;49.588;8.640;2023-02-28T01:32:23;1.80;64.20
68691;DHT22;55675;49.588;8.640;2023-02-28T01:34:49;1.80;64.80
68691;DHT22;55675;49.588;8.640;2023-02-28T01:37:14;1.80;64.60
68691;DHT22;55675;49.588;8.640;2023-02-28T01:39:40;1.80;65.00
68691;DHT22;55675;49.588;8.640;2023-02-28T01:42:05;1.70;65.50
68691;DHT22;55675;49.588;8.640;2023-02-28T01:47:15;1.70;65.80
68691;DHT22;55675;49.588;8.640;2023-02-28T01:49:40;1.70;66.00
68691;DHT22;55675;49.588;8.640;2023-02-28T01:52:06;1.70;66.10
68691;DHT22;55675;49.588;8.640;2023-02-28T01:54:32;1.70;66.60
68691;DHT22;55675;49.588;8.640;2023-02-28T01:57:01;1.70;67.20
68691;DHT22;55675;49.588;8.640;2023-02-28T01:59:29;1.70;66.80
68691;DHT22;55675;49.588;8.640;2023-02-28T02:01:57;1.70;66.40
68691;DHT22;55675;49.588;8.640;2023-02-28T02:04:23;1.70;67.00
68691;DHT22;55675;49.588;8.640;2023-02-28T02:06:50;1.70;67.80
68691;DHT22;55675;49.588;8.640;2023-02-28T02:09:16;1.70;67.90
68691;DHT22;55675;49.588;8.640;2023-02-28T02:11:42;1.60;67.40
68691;DHT22;55675;49.588;8.640;2023-02-28T02:14:22;1.60;67.80
68691;DHT22;55675;49.588;8.640;2023-02-28T02:17:02;1.70;67.80
68691;DHT22;55675;49.588;8.640;2023-02-28T02:19:36;1.60;68.00
68691;DHT22;55675;49.588;8.640;2023-02-28T02:22:27;1.60;68.10
68691;DHT22;55675;49.588;8.640;2023-02-28T02:35:14;1.60;68.60
68691;DHT22;55675;49.588;8.640;2023-02-28T02:40:12;1.50;69.20
68691;DHT22;55675;49.588;8.640;2023-02-28T02:42:40;1.60;69.40
68691;DHT22;55675;49.588;8.640;2023-02-28T02:45:42;1.60;69.40
68691;DHT22;55675;49.588;8.640;2023-02-28T02:48:03;1.50;69.60
68691;DHT22;55675;49.588;8.640;2023-02-28T02:50:34;1.50;69.80
68691;DHT22;55675;49.588;8.640;2023-02-28T02:53:02;1.50;69.70
68691;DHT22;55675;49.588;8.640;2023-02-28T02:55:28;1.50;70.00
68691;DHT22;55675;49.588;8.640;2023-02-28T02:57:57;1.50;70.00
68691;DHT22;55675;49.588;8.640;2023-02-28T03:00:25;1.50;70.20
68691;DHT22;55675;49.588;8.640;2023-02-28T03:02:52;1.50;70.20
68691;DHT22;55675;49.588;8.640;2023-02-28T03:05:23;1.50;69.80
68691;DHT22;55675;49.588;8.640;2023-02-28T03:07:50;1.50;70.70
68691;DHT22;55675;49.588;8.640;2023-02-28T03:10:29;1.50;70.80
68691;DHT22;55675;49.588;8.640;2023-02-28T03:13:05;1.40;70.70
68691;DHT22;55675;49.588;8.640;2023-02-28T03:15:37;1.50;70.90
68691;DHT22;55675;49.588;8.640;2023-02-28T03:18:16;1.40;70.90
68691;DHT22;55675;49.588;8.640;2023-02-28T03:20:49;1.40;70.80
68691;DHT22;55675;49.588;8.640;2023-02-28T03:23:21;1.40;71.10
68691;DHT22;55675;49.588;8.640;2023-02-28T03:28:37;1.40;71.00
68691;DHT22;55675;49.588;8.640;2023-02-28T03:31:07;1.40;71.10
68691;DHT22;55675;49.588;8.640;2023-02-28T03:33:39;1.40;71.50
68691;DHT22;55675;49.588;8.640;2023-02-28T03:36:08;1.40;71.50
68691;DHT22;55675;49.588;8.640;2023-02-28T03:38:36;1.30;71.60
68691;DHT22;55675;49.588;8.640;2023-02-28T03:41:05;1.30;71.50
68691;DHT22;55675;49.588;8.640;2023-02-28T03:43:33;1.30;71.80
68691;DHT22;55675;49.588;8.640;2023-02-28T03:46:00;1.30;71.80
68691;DHT22;55675;49.588;8.640;2023-02-28T03:48:30;1.30;71.50
68691;DHT22;55675;49.588;8.640;2023-02-28T03:50:57;1.30;71.80
68691;DHT22;55675;49.588;8.640;2023-02-28T03:58:22;1.30;72.40
68691;DHT22;55675;49.588;8.640;2023-02-28T04:00:52;1.20;72.20
68691;DHT22;55675;49.588;8.640;2023-02-28T04:03:20;1.20;72.20
68691;DHT22;55675;49.588;8.640;2023-02-28T04:05:52;1.20;72.30
68691;DHT22;55675;49.588;8.640;2023-02-28T04:08:18;1.20;72.50
68691;DHT22;55675;49.588;8.640;2023-02-28T04:10:44;1.20;72.20
68691;DHT22;55675;49.588;8.640;2023-02-28T04:13:10;1.20;72.30
68691;DHT22;55675;49.588;8.640;2023-02-28T04:15:35;1.20;72.50
68691;DHT22;55675;49.588;8.640;2023-02-28T04:18:02;1.20;72.50
68691;DHT22;55675;49.588;8.640;2023-02-28T04:20:27;1.20;72.50
68691;DHT22;55675;49.588;8.640;2023-02-28T04:22:53;1.20;72.60
68691;DHT22;55675;49.588;8.640;2023-02-28T04:25:18;1.20;72.50
68691;DHT22;55675;49.588;8.640;2023-02-28T04:27:44;1.20;72.70
68691;DHT22;55675;49.588;8.640;2023-02-28T04:30:10;1.20;72.60
68691;DHT22;55675;49.588;8.640;2023-02-28T04:32:35;1.20;72.60
68691;DHT22;55675;49.588;8.640;2023-02-28T04:35:01;1.20;72.80
68691;DHT22;55675;49.588;8.640;2023-02-28T04:37:27;1.20;72.80
68691;DHT22;55675;49.588;8.640;2023-02-28T04:39:54;1.20;72.70
68691;DHT22;55675;49.588;8.640;2023-02-28T04:42:19;1.20;72.60
68691;DHT22;55675;49.588;8.640;2023-02-28T04:44:45;1.20;72.80
68691;DHT22;55675;49.588;8.640;2023-02-28T04:47:10;1.20;72.80
68691;DHT22;55675;49.588;8.640;2023-02-28T04:49:36;1.10;72.80
68691;DHT22;55675;49.588;8.640;2023-02-28T04:52:01;1.10;72.70
68691;DHT22;55675;49.588;8.640;2023-02-28T04:54:27;1.10;72.80
68691;DHT22;55675;49.588;8.640;2023-02-28T04:56:53;1.10;72.90
68691;DHT22;55675;49.588;8.640;2023-02-28T04:59:19;1.10;72.90
68691;DHT22;55675;49.588;8.640;2023-02-28T05:01:46;1.10;73.00
68691;DHT22;55675;49.588;8.640;2023-02-28T05:04:12;1.10;73.10
68691;DHT22;55675;49.588;8.640;2023-02-28T05:06:37;1.10;73.00
68691;DHT22;55675;49.588;8.640;2023-02-28T05:09:03;1.10;73.20
68691;DHT22;55675;49.588;8.640;2023-02-28T05:11:29;1.10;73.20
68691;DHT22;55675;49.588;8.640;2023-02-28T05:14:00;1.10;73.10
68691;DHT22;55675;49.588;8.640;2023-02-28T05:16:25;1.10;73.30
68691;DHT22;55675;49.588;8.640;2023-02-28T05:18:51;1.10;73.30
68691;DHT22;55675;49.588;8.640;2023-02-28T05:21:29;1.20;73.20
68691;DHT22;55675;49.588;8.640;2023-02-28T05:23:56;1.20;73.30
68691;DHT22;55675;49.588;8.640;2023-02-28T05:26:22;1.20;73.20
68691;DHT22;55675;49.588;8.640;2023-02-28T05:28:47;1.30;73.20
68691;DHT22;55675;49.588;8.640;2023-02-28T05:31:13;1.30;73.10
68691;DHT22;55675;49.588;8.640;2023-02-28T05:33:39;1.30;73.00
68691;DHT22;55675;49.588;8.640;2023-02-28T05:36:05;1.40;73.10
68691;DHT22;55675;49.588;8.640;2023-02-28T05:38:30;1.40;72.70
68691;DHT22;55675;49.588;8.640;2023-02-28T05:40:56;1.40;72.60
68691;DHT22;55675;49.588;8.640;2023-02-28T05:43:21;1.40;72.50
68691;DHT22;55675;49.588;8.640;2023-02-28T05:45:47;1.40;72.60
68691;DHT22;55675;49.588;8.640;2023-02-28T05:48:12;1.50;73.40
68691;DHT22;55675;49.588;8.640;2023-02-28T05:50:38;1.50;73.50
68691;DHT22;55675;49.588;8.640;2023-02-28T05:53:03;1.50;72.80
68691;DHT22;55675;49.588;8.640;2023-02-28T05:55:28;1.50;72.40
68691;DHT22;55675;49.588;8.640;2023-02-28T05:57:54;1.50;72.20
68691;DHT22;55675;49.588;8.640;2023-02-28T06:00:20;1.50;72.30
68691;DHT22;55675;49.588;8.640;2023-02-28T06:02:45;1.50;72.40
68691;DHT22;55675;49.588;8.640;2023-02-28T06:05:14;1.60;72.10
68691;DHT22;55675;49.588;8.640;2023-02-28T06:07:41;1.50;71.90
68691;DHT22;55675;49.588;8.640;2023-02-28T06:10:06;1.50;71.90
68691;DHT22;55675;49.588;8.640;2023-02-28T06:12:32;1.50;71.60
68691;DHT22;55675;49.588;8.640;2023-02-28T06:14:57;1.50;71.60
68691;DHT22;55675;49.588;8.640;2023-02-28T06:17:23;1.50;71.70
68691;DHT22;55675;49.588;8.640;2023-02-28T06:19:48;1.50;71.80
68691;DHT22;55675;49.588;8.640;2023-02-28T06:22:13;1.50;72.00
68691;DHT22;55675;49.588;8.640;2023-02-28T06:24:39;1.50;71.90
68691;DHT22;55675;49.588;8.640;2023-02-28T06:27:04;1.50;71.80
68691;DHT22;55675;49.588;8.640;2023-02-28T06:29:31;1.40;71.80
68691;DHT22;55675;49.588;8.640;2023-02-28T06:31:56;1.40;71.90
68691;DHT22;55675;49.588;8.640;2023-02-28T06:34:22;1.50;72.10
68691;DHT22;55675;49.588;8.640;2023-02-28T06:36:50;1.50;72.10
68691;DHT22;55675;49.588;8.640;2023-02-28T06:39:15;1.50;71.70
68691;DHT22;55675;49.588;8.640;2023-02-28T06:41:41;1.50;71.40
68691;DHT22;55675;49.588;8.640;2023-02-28T06:44:16;1.50;71.20
68691;DHT22;55675;49.588;8.640;2023-02-28T06:46:42;1.60;71.40
68691;DHT22;55675;49.588;8.640;2023-02-28T06:49:09;1.70;71.40
68691;DHT22;55675;49.588;8.640;2023-02-28T06:51:35;1.70;71.10
68691;DHT22;55675;49.588;8.640;2023-02-28T06:54:01;1.80;70.50
68691;DHT22;55675;49.588;8.640;2023-02-28T06:56:26;1.90;70.50
68691;DHT22;55675;49.588;8.640;2023-02-28T06:58:52;2.00;70.30
68691;DHT22;55675;49.588;8.640;2023-02-28T07:01:21;2.10;70.10
68691;DHT22;55675;49.588;8.640;2023-02-28T07:03:48;2.20;69.30
68691;DHT22;55675;49.588;8.640;2023-02-28T07:06:23;2.30;68.90
68691;DHT22;55675;49.588;8.640;2023-02-28T07:08:52;2.50;68.60
68691;DHT22;55675;49.588;8.640;2023-02-28T07:11:18;2.60;68.00
68691;DHT22;55675;49.588;8.640;2023-02-28T07:13:44;2.70;67.30
68691;DHT22;55675;49.588;8.640;2023-02-28T07:16:10;2.80;66.90
68691;DHT22;55675;49.588;8.640;2023-02-28T07:18:36;2.90;66.80
68691;DHT22;55675;49.588;8.640;2023-02-28T07:21:03;3.10;67.20
68691;DHT22;55675;49.588;8.640;2023-02-28T07:23:28;3.30;66.00
68691;DHT22;55675;49.588;8.640;2023-02-28T07:25:54;3.50;64.60
68691;DHT22;55675;49.588;8.640;2023-02-28T07:28:19;3.60;64.40
68691;DHT22;55675;49.588;8.640;2023-02-28T07:30:45;3.80;64.80
68691;DHT22;55675;49.588;8.640;2023-02-28T07:33:10;4.00;64.40
68691;DHT22;55675;49.588;8.640;2023-02-28T07:35:36;4.20;64.10
68691;DHT22;55675;49.588;8.640;2023-02-28T07:38:01;4.30;62.20
68691;DHT22;55675;49.588;8.640;2023-02-28T07:40:28;4.40;61.80
68691;DHT22;55675;49.588;8.640;2023-02-28T07:42:53;4.50;61.90
68691;DHT22;55675;49.588;8.640;2023-02-28T07:45:18;4.70;61.20
68691;DHT22;55675;49.588;8.640;2023-02-28T07:47:44;4.90;61.50
68691;DHT22;55675;49.588;8.640;2023-02-28T07:50:11;5.00;60.40
68691;DHT22;55675;49.588;8.640;2023-02-28T07:52:37;5.20;60.20
68691;DHT22;55675;49.588;8.640;2023-02-28T07:55:03;5.30;59.20
68691;DHT22;55675;49.588;8.640;2023-02-28T07:57:28;5.40;58.80
68691;DHT22;55675;49.588;8.640;2023-02-28T07:59:54;5.50;57.80
68691;DHT22;55675;49.588;8.640;2023-02-28T08:02:19;5.60;57.90
68691;DHT22;55675;49.588;8.640;2023-02-28T08:04:44;5.60;57.50
68691;DHT22;55675;49.588;8.640;2023-02-28T08:07:12;5.70;58.30
68691;DHT22;55675;49.588;8.640;2023-02-28T08:09:38;5.90;58.10
68691;DHT22;55675;49.588;8.640;2023-02-28T08:12:04;6.00;57.70
68691;DHT22;55675;49.588;8.640;2023-02-28T08:14:29;6.00;55.60
68691;DHT22;55675;49.588;8.640;2023-02-28T08:16:55;6.00;56.10
68691;DHT22;55675;49.588;8.640;2023-02-28T08:19:20;6.00;55.40
68691;DHT22;55675;49.588;8.640;2023-02-28T08:21:45;5.90;55.10
68691;DHT22;55675;49.588;8.640;2023-02-28T08:24:11;5.80;54.90
68691;DHT22;55675;49.588;8.640;2023-02-28T08:26:36;5.70;55.20
68691;DHT22;55675;49.588;8.640;2023-02-28T08:29:02;5.60;54.80
68691;DHT22;55675;49.588;8.640;2023-02-28T08:31:27;5.40;55.10
68691;DHT22;55675;49.588;8.640;2023-02-28T08:33:53;5.30;55.60
68691;DHT22;55675;49.588;8.640;2023-02-28T08:36:21;5.20;55.80
68691;DHT22;55675;49.588;8.640;2023-02-28T08:38:46;5.10;55.70
68691;DHT22;55675;49.588;8.640;2023-02-28T08:41:12;5.10;56.00
68691;DHT22;55675;49.588;8.640;2023-02-28T08:43:38;5.00;56.30
68691;DHT22;55675;49.588;8.640;2023-02-28T08:46:03;5.10;56.30
68691;DHT22;55675;49.588;8.640;2023-02-28T08:48:30;5.10;56.40
68691;DHT22;55675;49.588;8.640;2023-02-28T08:51:02;5.10;56.10
68691;DHT22;55675;49.588;8.640;2023-02-28T08:53:28;5.10;56.20
68691;DHT22;55675;49.588;8.640;2023-02-28T08:56:07;5.20;56.20
68691;DHT22;55675;49.588;8.640;2023-02-28T08:58:33;5.20;55.70
68691;DHT22;55675;49.588;8.640;2023-02-28T09:00:59;5.30;56.30
68691;DHT22;55675;49.588;8.640;2023-02-28T09:03:25;5.40;56.10
68691;DHT22;55675;49.588;8.640;2023-02-28T09:05:53;5.30;55.20
68691;DHT22;55675;49.588;8.640;2023-02-28T09:08:19;5.40;55.60
68691;DHT22;55675;49.588;8.640;2023-02-28T09:10:44;5.50;54.60
68691;DHT22;55675;49.588;8.640;2023-02-28T09:13:10;5.50;54.50
68691;DHT22;55675;49.588;8.640;2023-02-28T09:15:36;5.50;54.70
68691;DHT22;55675;49.588;8.640;2023-02-28T09:18:02;5.50;54.80
68691;DHT22;55675;49.588;8.640;2023-02-28T09:20:27;5.60;54.10
68691;DHT22;55675;49.588;8.640;2023-02-28T09:22:53;5.60;53.70
68691;DHT22;55675;49.588;8.640;2023-02-28T09:25:18;5.60;53.40
68691;DHT22;55675;49.588;8.640;2023-02-28T09:27:44;5.60;53.30
68691;DHT22;55675;49.588;8.640;2023-02-28T09:30:10;5.70;53.90
68691;DHT22;55675;49.588;8.640;2023-02-28T09:32:36;5.70;52.70
68691;DHT22;55675;49.588;8.640;2023-02-28T09:35:01;5.70;52.90
68691;DHT22;55675;49.588;8.640;2023-02-28T09:37:27;5.70;53.20
68691;DHT22;55675;49.588;8.640;2023-02-28T09:39:54;5.80;52.80
68691;DHT22;55675;49.588;8.640;2023-02-28T09:42:29;5.80;52.60
68691;DHT22;55675;49.588;8.640;2023-02-28T09:44:56;5.80;52.20
68691;DHT22;55675;49.588;8.640;2023-02-28T09:47:32;5.80;52.20
68691;DHT22;55675;49.588;8.640;2023-02-28T09:50:00;5.80;51.80
68691;DHT22;55675;49.588;8.640;2023-02-28T09:52:29;5.90;52.00
68691;DHT22;55675;49.588;8.640;2023-02-28T09:54:55;5.90;51.60
68691;DHT22;55675;49.588;8.640;2023-02-28T09:57:37;6.00;52.10
68691;DHT22;55675;49.588;8.640;2023-02-28T10:00:19;6.10;51.80
68691;DHT22;55675;49.588;8.640;2023-02-28T10:05:37;6.40;51.40
68691;DHT22;55675;49.588;8.640;2023-02-28T10:10:42;6.60;51.00
68691;DHT22;55675;49.588;8.640;2023-02-28T10:13:45;6.60;51.30
68691;DHT22;55675;49.588;8.640;2023-02-28T10:16:05;6.70;49.80
68691;DHT22;55675;49.588;8.640;2023-02-28T10:18:37;6.80;50.30
68691;DHT22;55675;49.588;8.640;2023-02-28T10:21:04;6.80;49.70
68691;DHT22;55675;49.588;8.640;2023-02-28T10:23:34;6.90;49.90
68691;DHT22;55675;49.588;8.640;2023-02-28T10:26:11;7.00;50.00
68691;DHT22;55675;49.588;8.640;2023-02-28T10:28:37;7.20;50.20
68691;DHT22;55675;49.588;8.640;2023-02-28T10:31:02;7.30;49.30
68691;DHT22;55675;49.588;8.640;2023-02-28T10:33:32;7.50;48.30
68691;DHT22;55675;49.588;8.640;2023-02-28T10:35:59;7.60;48.10
68691;DHT22;55675;49.588;8.640;2023-02-28T10:38:26;7.60;47.80
68691;DHT22;55675;49.588;8.640;2023-02-28T10:41:03;7.70;48.20
68691;DHT22;55675;49.588;8.640;2023-02-28T10:43:28;7.80;48.50
68691;DHT22;55675;49.588;8.640;2023-02-28T10:45:56;7.70;47.90
68691;DHT22;55675;49.588;8.640;2023-02-28T10:53:16;7.70;47.90
68691;DHT22;55675;49.588;8.640;2023-02-28T10:55:42;7.70;47.30
68691;DHT22;55675;49.588;8.640;2023-02-28T10:58:20;7.80;47.40
68691;DHT22;55675;49.588;8.640;2023-02-28T11:00:46;7.80;47.90
68691;DHT22;55675;49.588;8.640;2023-02-28T11:03:22;7.90;47.30
68691;DHT22;55675;49.588;8.640;2023-02-28T11:05:48;7.90;47.00
68691;DHT22;55675;49.588;8.640;2023-02-28T11:08:14;7.80;47.00
68691;DHT22;55675;49.588;8.640;2023-02-28T11:10:44;7.80;46.70
68691;DHT22;55675;49.588;8.640;2023-02-28T11:13:17;7.80;47.10
68691;DHT22;55675;49.588;8.640;2023-02-28T11:15:49;7.80;47.40
68691;DHT22;55675;49.588;8.640;2023-02-28T11:18:21;7.80;46.90
68691;DHT22;55675;49.588;8.640;2023-02-28T11:20:49;7.90;47.00
68691;DHT22;55675;49.588;8.640;2023-02-28T11:23:15;7.90;47.10
68691;DHT22;55675;49.588;8.640;2023-02-28T11:25:41;7.90;46.40
68691;DHT22;55675;49.588;8.640;2023-02-28T11:28:23;7.90;46.40
68691;DHT22;55675;49.588;8.640;2023-02-28T11:31:03;7.90;46.30
68691;DHT22;55675;49.588;8.640;2023-02-28T11:33:30;7.80;47.00
68691;DHT22;55675;49.588;8.640;2023-02-28T11:36:04;7.90;46.90
68691;DHT22;55675;49.588;8.640;2023-02-28T11:38:34;8.00;47.20
68691;DHT22;55675;49.588;8.640;2023-02-28T11:41:05;8.00;46.50
68691;DHT22;55675;49.588;8.640;2023-02-28T11:46:18;8.20;46.50
68691;DHT22;55675;49.588;8.640;2023-02-28T11:51:28;8.20;45.50
68691;DHT22;55675;49.588;8.640;2023-02-28T11:56:33;8.20;45.70
68691;DHT22;55675;49.588;8.640;2023-02-28T12:01:36;8.20;44.80
68691;DHT22;55675;49.588;8.640;2023-02-28T12:04:10;8.20;44.60
68691;DHT22;55675;49.588;8.640;2023-02-28T12:19:26;9.10;44.20
68691;DHT22;55675;49.588;8.640;2023-02-28T12:27:02;9.50;43.80
68691;DHT22;55675;49.588;8.640;2023-02-28T12:29:33;9.60;43.70
68691;DHT22;55675;49.588;8.640;2023-02-28T12:32:45;9.80;43.30
68691;DHT22;55675;49.588;8.640;2023-02-28T12:34:49;9.90;43.50
68691;DHT22;55675;49.588;8.640;2023-02-28T12:37:26;10.00;43.70
68691;DHT22;55675;49.588;8.640;2023-02-28T12:39:55;10.20;42.50
68691;DHT22;55675;49.588;8.640;2023-02-28T12:42:26;10.30;42.00
68691;DHT22;55675;49.588;8.640;2023-02-28T12:44:58;10.40;41.80
68691;DHT22;55675;49.588;8.640;2023-02-28T12:47:24;10.50;41.30
68691;DHT22;55675;49.588;8.640;2023-02-28T12:49:52;10.60;41.20
68691;DHT22;55675;49.588;8.640;2023-02-28T12:52:24;10.50;39.00
68691;DHT22;55675;49.588;8.640;2023-02-28T12:54:55;10.30;39.60
68691;DHT22;55675;49.588;8.640;2023-02-28T12:57:39;10.30;40.80
68691;DHT22;55675;49.588;8.640;2023-02-28T13:00:13;10.40;40.80
68691;DHT22;55675;49.588;8.640;2023-02-28T13:10:45;11.20;41.00
68691;DHT22;55675;49.588;8.640;2023-02-28T13:13:15;11.40;40.30
68691;DHT22;55675;49.588;8.640;2023-02-28T13:15:41;11.50;38.50
68691;DHT22;55675;49.588;8.640;2023-02-28T13:18:27;11.60;38.20
68691;DHT22;55675;49.588;8.640;2023-02-28T13:20:53;11.70;39.00
68691;DHT22;55675;49.588;8.640;2023-02-28T13:26:03;12.00;37.60
68691;DHT22;55675;49.588;8.640;2023-02-28T13:31:13;12.40;37.70
68691;DHT22;55675;49.588;8.640;2023-02-28T13:36:26;12.70;36.10
68691;DHT22;55675;49.588;8.640;2023-02-28T13:38:57;12.70;35.50
68691;DHT22;55675;49.588;8.640;2023-02-28T13:46:30;17.00;33.20
68691;DHT22;55675;49.588;8.640;2023-02-28T13:48:56;18.60;29.80
68691;DHT22;55675;49.588;8.640;2023-02-28T13:54:01;20.10;26.30
68691;DHT22;55675;49.588;8.640;2023-02-28T13:56:39;21.20;25.70
68691;DHT22;55675;49.588;8.640;2023-02-28T13:59:23;22.60;23.50
68691;DHT22;55675;49.588;8.640;2023-02-28T14:02:15;24.30;22.70
68691;DHT22;55675;49.588;8.640;2023-02-28T14:04:49;25.60;20.80
68691;DHT22;55675;49.588;8.640;2023-02-28T14:07:28;25.90;19.70
68691;DHT22;55675;49.588;8.640;2023-02-28T14:10:05;25.50;19.20
68691;DHT22;55675;49.588;8.640;2023-02-28T14:17:58;23.70;18.70
68691;DHT22;55675;49.588;8.640;2023-02-28T14:20:26;21.60;20.10
68691;DHT22;55675;49.588;8.640;2023-02-28T14:23:00;19.80;21.50
68691;DHT22;55675;49.588;8.640;2023-02-28T14:28:04;17.20;24.10
68691;DHT22;55675;49.588;8.640;2023-02-28T14:38:27;14.40;27.90
68691;DHT22;55675;49.588;8.640;2023-02-28T14:40:54;14.10;28.40
68691;DHT22;55675;49.588;8.640;2023-02-28T14:43:29;13.80;29.00
68691;DHT22;55675;49.588;8.640;2023-02-28T14:46:01;14.30;29.80
68691;DHT22;55675;49.588;8.640;2023-02-28T14:48:27;14.80;29.00
68691;DHT22;55675;49.588;8.640;2023-02-28T14:50:54;14.60;28.40
68691;DHT22;55675;49.588;8.640;2023-02-28T14:53:21;14.30;28.80
68691;DHT22;55675;49.588;8.640;2023-02-28T14:55:47;14.40;29.70
68691;DHT22;55675;49.588;8.640;2023-02-28T14:58:24;15.10;29.60
68691;DHT22;55675;49.588;8.640;2023-02-28T15:00:51;16.20;29.10
68691;DHT22;55675;49.588;8.640;2023-02-28T15:03:39;17.40;28.30
68691;DHT22;55675;49.588;8.640;2023-02-28T15:08:29;20.20;24.90
68691;DHT22;55675;49.588;8.640;2023-02-28T15:11:07;21.20;23.90
68691;DHT22;55675;49.588;8.640;2023-02-28T15:13:37;22.20;23.40
68691;DHT22;55675;49.588;8.640;2023-02-28T15:16:06;23.20;21.90
68691;DHT22;55675;49.588;8.640;2023-02-28T15:21:39;25.00;20.10
68691;DHT22;55675;49.588;8.640;2023-02-28T15:24:10;25.70;19.80
68691;DHT22;55675;49.588;8.640;2023-02-28T15:26:45;26.30;18.70
68691;DHT22;55675;49.588;8.640;2023-02-28T15:29:22;26.70;18.60
68691;DHT22;55675;49.588;8.640;2023-02-28T15:31:50;27.00;18.20
68691;DHT22;55675;49.588;8.640;2023-02-28T15:36:52;27.10;17.60
68691;DHT22;55675;49.588;8.640;2023-02-28T15:39:23;27.10;17.50
68691;DHT22;55675;49.588;8.640;2023-02-28T15:41:50;27.00;17.60
68691;DHT22;55675;49.588;8.640;2023-02-28T15:44:30;27.10;17.30
68691;DHT22;55675;49.588;8.640;2023-02-28T15:47:19;27.20;17.30
68691;DHT22;55675;49.588;8.640;2023-02-28T15:49:46;27.00;17.20
68691;DHT22;55675;49.588;8.640;2023-02-28T15:52:17;26.80;17.40
68691;DHT22;55675;49.588;8.640;2023-02-28T15:54:44;26.60;17.20
68691;DHT22;55675;49.588;8.640;2023-02-28T15:57:19;26.10;17.10
68691;DHT22;55675;49.588;8.640;2023-02-28T15:59:54;25.60;17.90
68691;DHT22;55675;49.588;8.640;2023-02-28T16:02:22;25.30;18.40
68691;DHT22;55675;49.588;8.640;2023-02-28T16:07:20;24.70;18.20
68691;DHT22;55675;49.588;8.640;2023-02-28T16:09:46;24.40;18.40
68691;DHT22;55675;49.588;8.640;2023-02-28T16:12:13;24.40;18.60
68691;DHT22;55675;49.588;8.640;2023-02-28T16:14:39;24.40;18.80
68691;DHT22;55675;49.588;8.640;2023-02-28T16:17:07;24.40;18.70
68691;DHT22;55675;49.588;8.640;2023-02-28T16:19:34;24.20;18.70
68691;DHT22;55675;49.588;8.640;2023-02-28T16:21:59;24.00;18.70
68691;DHT22;55675;49.588;8.640;2023-02-28T16:24:25;23.50;18.70
68691;DHT22;55675;49.588;8.640;2023-02-28T16:26:51;23.10;19.20
68691;DHT22;55675;49.588;8.640;2023-02-28T16:29:27;22.60;19.50
68691;DHT22;55675;49.588;8.640;2023-02-28T16:31:53;22.30;20.00
68691;DHT22;55675;49.588;8.640;2023-02-28T16:34:19;21.80;20.10
68691;DHT22;55675;49.588;8.640;2023-02-28T16:36:48;21.20;20.30
68691;DHT22;55675;49.588;8.640;2023-02-28T16:39:14;20.50;20.80
68691;DHT22;55675;49.588;8.640;2023-02-28T16:41:41;19.90;21.50
68691;DHT22;55675;49.588;8.640;2023-02-28T16:44:09;19.40;21.90
68691;DHT22;55675;49.588;8.640;2023-02-28T16:46:35;19.00;22.30
68691;DHT22;55675;49.588;8.640;2023-02-28T16:49:01;18.40;22.70
68691;DHT22;55675;49.588;8.640;2023-02-28T16:51:26;17.80;23.10
68691;DHT22;55675;49.588;8.640;2023-02-28T16:53:52;17.10;23.40
68691;DHT22;55675;49.588;8.640;2023-02-28T16:56:18;16.20;24.30
68691;DHT22;55675;49.588;8.640;2023-02-28T16:58:44;15.40;25.40
68691;DHT22;55675;49.588;8.640;2023-02-28T17:01:10;14.50;25.60
68691;DHT22;55675;49.588;8.640;2023-02-28T17:03:35;13.80;26.00
68691;DHT22;55675;49.588;8.640;2023-02-28T17:06:02;13.10;26.80
68691;DHT22;55675;49.588;8.640;2023-02-28T17:08:28;12.50;27.50
68691;DHT22;55675;49.588;8.640;2023-02-28T17:10:55;12.00;28.10
68691;DHT22;55675;49.588;8.640;2023-02-28T17:13:20;11.60;28.50
68691;DHT22;55675;49.588;8.640;2023-02-28T17:15:46;11.20;29.00
68691;DHT22;55675;49.588;8.640;2023-02-28T17:18:13;10.80;30.20
68691;DHT22;55675;49.588;8.640;2023-02-28T17:20:41;10.40;31.10
68691;DHT22;55675;49.588;8.640;2023-02-28T17:23:07;10.00;31.30
68691;DHT22;55675;49.588;8.640;2023-02-28T17:25:33;9.70;31.50
68691;DHT22;55675;49.588;8.640;2023-02-28T17:27:58;9.40;31.80
68691;DHT22;55675;49.588;8.640;2023-02-28T17:30:25;9.20;32.30
68691;DHT22;55675;49.588;8.640;2023-02-28T17:32:52;9.00;32.70
68691;DHT22;55675;49.588;8.640;2023-02-28T17:35:18;8.70;33.60
68691;DHT22;55675;49.588;8.640;2023-02-28T17:37:43;8.60;33.60
68691;DHT22;55675;49.588;8.640;2023-02-28T17:40:12;8.40;34.40